sensor_id;sensor_type;location;lat;lon;timestamp;P1;durP1;ratioP1;P2;durP2;ratioP2
52180;SDS011;38158;53.338;6.514;2023-03-23T00:01:07;3.80;;;1.25;;
52180;SDS011;38158;53.338;6.514;2023-03-23T00:03:35;4.22;;;1.48;;
52180;SDS011;38158;53.338;6.514;2023-03-23T00:06:02;5.40;;;1.30;;
52180;SDS011;38158;53.338;6.514;2023-03-23T00:08:36;4.03;;;1.60;;
52180;SDS011;38158;53.338;6.514;2023-03-23T00:11:10;5.57;;;2.10;;
52180;SDS011;38158;53.338;6.514;2023-03-23T00:13:44;7.07;;;2.97;;
52180;SDS011;38158;53.338;6.514;2023-03-23T00:18:44;6.60;;;2.80;;
52180;SDS011;38158;53.338;6.514;2023-03-23T00:21:10;9.88;;;3.80;;
52180;SDS011;38158;53.338;6.514;2023-03-23T00:23:36;6.55;;;4.20;;
52180;SDS011;38158;53.338;6.514;2023-03-23T00:26:03;9.85;;;5.88;;
52180;SDS011;38158;53.338;6.514;2023-03-23T00:28:29;9.77;;;5.78;;
52180;SDS011;38158;53.338;6.514;2023-03-23T00:30:58;11.05;;;6.40;;
52180;SDS011;38158;53.338;6.514;2023-03-23T00:33:26;13.95;;;7.20;;
52180;SDS011;38158;53.338;6.514;2023-03-23T00:35:54;9.35;;;5.97;;
52180;SDS011;38158;53.338;6.514;2023-03-23T00:38:23;10.00;;;6.13;;
52180;SDS011;38158;53.338;6.514;2023-03-23T00:40:50;9.18;;;5.55;;
52180;SDS011;38158;53.338;6.514;2023-03-23T00:43:16;10.27;;;6.40;;
52180;SDS011;38158;53.338;6.514;2023-03-23T00:45:44;9.45;;;5.15;;
52180;SDS011;38158;53.338;6.514;2023-03-23T00:48:14;8.73;;;5.90;;
52180;SDS011;38158;53.338;6.514;2023-03-23T00:50:40;8.38;;;5.63;;
52180;SDS011;38158;53.338;6.514;2023-03-23T00:53:06;11.38;;;6.47;;
52180;SDS011;38158;53.338;6.514;2023-03-23T00:55:32;11.95;;;6.60;;
52180;SDS011;38158;53.338;6.514;2023-03-23T00:57:59;11.75;;;6.43;;
52180;SDS011;38158;53.338;6.514;2023-03-23T01:00:25;11.02;;;6.47;;
52180;SDS011;38158;53.338;6.514;2023-03-23T01:02:52;10.50;;;7.68;;
52180;SDS011;38158;53.338;6.514;2023-03-23T01:05:18;12.20;;;8.55;;
52180;SDS011;38158;53.338;6.514;2023-03-23T01:07:45;14.23;;;9.60;;
52180;SDS011;38158;53.338;6.514;2023-03-23T01:10:12;16.00;;;9.67;;
52180;SDS011;38158;53.338;6.514;2023-03-23T01:12:41;15.27;;;10.38;;
52180;SDS011;38158;53.338;6.514;2023-03-23T01:15:09;15.50;;;10.40;;
52180;SDS011;38158;53.338;6.514;2023-03-23T01:17:39;16.92;;;11.82;;
52180;SDS011;38158;53.338;6.514;2023-03-23T01:20:06;13.95;;;10.80;;
52180;SDS011;38158;53.338;6.514;2023-03-23T01:22:32;16.48;;;10.63;;
52180;SDS011;38158;53.338;6.514;2023-03-23T01:24:58;14.35;;;9.70;;
52180;SDS011;38158;53.338;6.514;2023-03-23T01:27:23;13.38;;;9.02;;
52180;SDS011;38158;53.338;6.514;2023-03-23T01:29:49;10.88;;;7.20;;
52180;SDS011;38158;53.338;6.514;2023-03-23T01:32:15;15.00;;;8.30;;
52180;SDS011;38158;53.338;6.514;2023-03-23T01:34:41;11.50;;;8.00;;
52180;SDS011;38158;53.338;6.514;2023-03-23T01:37:07;9.30;;;6.63;;
52180;SDS011;38158;53.338;6.514;2023-03-23T01:39:35;9.77;;;6.13;;
52180;SDS011;38158;53.338;6.514;2023-03-23T01:42:01;8.68;;;5.55;;
52180;SDS011;38158;53.338;6.514;2023-03-23T01:46:56;8.38;;;4.80;;
52180;SDS011;38158;53.338;6.514;2023-03-23T01:49:27;7.82;;;3.95;;
52180;SDS011;38158;53.338;6.514;2023-03-23T01:52:00;9.02;;;4.25;;
52180;SDS011;38158;53.338;6.514;2023-03-23T01:54:33;7.03;;;4.53;;
52180;SDS011;38158;53.338;6.514;2023-03-23T01:57:34;7.93;;;5.15;;
52180;SDS011;38158;53.338;6.514;2023-03-23T01:59:55;8.23;;;5.00;;
52180;SDS011;38158;53.338;6.514;2023-03-23T02:02:24;10.35;;;6.07;;
52180;SDS011;38158;53.338;6.514;2023-03-23T02:04:50;13.02;;;6.57;;
52180;SDS011;38158;53.338;6.514;2023-03-23T02:07:20;9.80;;;6.80;;
52180;SDS011;38158;53.338;6.514;2023-03-23T02:09:46;11.32;;;6.35;;
52180;SDS011;38158;53.338;6.514;2023-03-23T02:12:13;11.60;;;7.95;;
52180;SDS011;38158;53.338;6.514;2023-03-23T02:14:38;12.13;;;7.95;;
52180;SDS011;38158;53.338;6.514;2023-03-23T02:17:06;13.07;;;7.55;;
52180;SDS011;38158;53.338;6.514;2023-03-23T02:19:55;13.27;;;8.68;;
52180;SDS011;38158;53.338;6.514;2023-03-23T02:24:59;21.75;;;8.43;;
52180;SDS011;38158;53.338;6.514;2023-03-23T02:41:38;17.80;;;6.88;;
52180;SDS011;38158;53.338;6.514;2023-03-23T02:44:08;13.60;;;6.63;;
52180;SDS011;38158;53.338;6.514;2023-03-23T02:46:35;11.20;;;6.30;;
52180;SDS011;38158;53.338;6.514;2023-03-23T02:49:02;10.13;;;5.82;;
52180;SDS011;38158;53.338;6.514;2023-03-23T02:51:31;16.73;;;7.15;;
52180;SDS011;38158;53.338;6.514;2023-03-23T02:53:59;13.48;;;6.13;;
52180;SDS011;38158;53.338;6.514;2023-03-23T02:56:27;19.08;;;5.45;;
52180;SDS011;38158;53.338;6.514;2023-03-23T02:58:54;13.80;;;6.10;;
52180;SDS011;38158;53.338;6.514;2023-03-23T03:03:57;11.55;;;6.00;;
52180;SDS011;38158;53.338;6.514;2023-03-23T03:09:56;14.32;;;5.85;;
52180;SDS011;38158;53.338;6.514;2023-03-23T03:17:47;14.63;;;6.22;;
52180;SDS011;38158;53.338;6.514;2023-03-23T03:20:31;14.93;;;5.35;;
52180;SDS011;38158;53.338;6.514;2023-03-23T03:23:00;12.07;;;5.43;;
52180;SDS011;38158;53.338;6.514;2023-03-23T03:25:27;12.02;;;4.53;;
52180;SDS011;38158;53.338;6.514;2023-03-23T03:27:54;10.80;;;4.80;;
52180;SDS011;38158;53.338;6.514;2023-03-23T03:30:23;14.82;;;5.57;;
52180;SDS011;38158;53.338;6.514;2023-03-23T03:32:53;10.02;;;5.18;;
52180;SDS011;38158;53.338;6.514;2023-03-23T03:35:23;12.70;;;4.93;;
52180;SDS011;38158;53.338;6.514;2023-03-23T03:37:49;11.93;;;5.00;;
52180;SDS011;38158;53.338;6.514;2023-03-23T03:40:16;15.00;;;5.47;;
52180;SDS011;38158;53.338;6.514;2023-03-23T03:42:44;10.38;;;5.03;;
52180;SDS011;38158;53.338;6.514;2023-03-23T03:45:12;7.88;;;4.80;;
52180;SDS011;38158;53.338;6.514;2023-03-23T03:47:40;11.05;;;5.03;;
52180;SDS011;38158;53.338;6.514;2023-03-23T03:50:06;12.07;;;4.57;;
52180;SDS011;38158;53.338;6.514;2023-03-23T03:52:33;10.07;;;4.57;;
52180;SDS011;38158;53.338;6.514;2023-03-23T03:54:59;9.00;;;4.57;;
52180;SDS011;38158;53.338;6.514;2023-03-23T03:57:25;10.45;;;4.90;;
52180;SDS011;38158;53.338;6.514;2023-03-23T03:59:51;8.63;;;4.50;;
52180;SDS011;38158;53.338;6.514;2023-03-23T04:02:17;9.13;;;3.92;;
52180;SDS011;38158;53.338;6.514;2023-03-23T04:04:46;12.93;;;4.15;;
52180;SDS011;38158;53.338;6.514;2023-03-23T04:07:12;10.43;;;3.92;;
52180;SDS011;38158;53.338;6.514;2023-03-23T04:09:39;7.75;;;3.70;;
52180;SDS011;38158;53.338;6.514;2023-03-23T04:12:05;8.75;;;3.67;;
52180;SDS011;38158;53.338;6.514;2023-03-23T04:14:32;6.05;;;2.75;;
52180;SDS011;38158;53.338;6.514;2023-03-23T04:16:57;8.85;;;3.20;;
52180;SDS011;38158;53.338;6.514;2023-03-23T04:19:24;10.00;;;3.22;;
52180;SDS011;38158;53.338;6.514;2023-03-23T04:21:49;8.00;;;3.25;;
52180;SDS011;38158;53.338;6.514;2023-03-23T04:24:15;9.18;;;3.72;;
52180;SDS011;38158;53.338;6.514;2023-03-23T04:26:41;10.05;;;3.95;;
52180;SDS011;38158;53.338;6.514;2023-03-23T04:29:07;7.85;;;4.50;;
52180;SDS011;38158;53.338;6.514;2023-03-23T04:31:33;7.90;;;3.30;;
52180;SDS011;38158;53.338;6.514;2023-03-23T04:34:00;9.38;;;4.18;;
52180;SDS011;38158;53.338;6.514;2023-03-23T04:36:26;6.80;;;3.40;;
52180;SDS011;38158;53.338;6.514;2023-03-23T04:38:54;7.82;;;2.80;;
52180;SDS011;38158;53.338;6.514;2023-03-23T04:41:21;8.55;;;2.42;;
52180;SDS011;38158;53.338;6.514;2023-03-23T04:43:48;5.38;;;2.00;;
52180;SDS011;38158;53.338;6.514;2023-03-23T04:46:18;8.63;;;2.53;;
52180;SDS011;38158;53.338;6.514;2023-03-23T04:48:46;5.35;;;2.10;;
52180;SDS011;38158;53.338;6.514;2023-03-23T04:51:12;6.00;;;2.30;;
52180;SDS011;38158;53.338;6.514;2023-03-23T04:53:38;7.20;;;1.70;;
52180;SDS011;38158;53.338;6.514;2023-03-23T04:56:04;5.43;;;1.88;;
52180;SDS011;38158;53.338;6.514;2023-03-23T04:58:30;5.82;;;1.67;;
52180;SDS011;38158;53.338;6.514;2023-03-23T05:00:59;10.48;;;2.63;;
52180;SDS011;38158;53.338;6.514;2023-03-23T05:03:25;6.72;;;1.75;;
52180;SDS011;38158;53.338;6.514;2023-03-23T05:05:52;8.73;;;2.17;;
52180;SDS011;38158;53.338;6.514;2023-03-23T05:08:19;7.00;;;1.95;;
52180;SDS011;38158;53.338;6.514;2023-03-23T05:10:56;10.32;;;2.58;;
52180;SDS011;38158;53.338;6.514;2023-03-23T05:13:22;10.33;;;2.07;;
52180;SDS011;38158;53.338;6.514;2023-03-23T05:15:48;11.02;;;2.28;;
52180;SDS011;38158;53.338;6.514;2023-03-23T05:18:15;14.43;;;2.55;;
52180;SDS011;38158;53.338;6.514;2023-03-23T05:20:41;12.05;;;2.70;;
52180;SDS011;38158;53.338;6.514;2023-03-23T05:23:07;10.35;;;3.33;;
52180;SDS011;38158;53.338;6.514;2023-03-23T05:25:34;10.70;;;2.05;;
52180;SDS011;38158;53.338;6.514;2023-03-23T05:28:04;12.20;;;2.58;;
52180;SDS011;38158;53.338;6.514;2023-03-23T05:30:35;11.38;;;2.47;;
52180;SDS011;38158;53.338;6.514;2023-03-23T05:33:01;12.60;;;2.83;;
52180;SDS011;38158;53.338;6.514;2023-03-23T05:35:29;9.15;;;2.42;;
52180;SDS011;38158;53.338;6.514;2023-03-23T05:37:54;9.90;;;2.25;;
52180;SDS011;38158;53.338;6.514;2023-03-23T05:40:22;13.40;;;2.58;;
52180;SDS011;38158;53.338;6.514;2023-03-23T05:42:50;13.02;;;2.30;;
52180;SDS011;38158;53.338;6.514;2023-03-23T05:45:17;10.43;;;2.20;;
52180;SDS011;38158;53.338;6.514;2023-03-23T05:47:43;14.20;;;2.97;;
52180;SDS011;38158;53.338;6.514;2023-03-23T05:50:10;12.93;;;2.28;;
52180;SDS011;38158;53.338;6.514;2023-03-23T05:55:03;17.80;;;2.67;;
52180;SDS011;38158;53.338;6.514;2023-03-23T05:57:30;19.23;;;3.03;;
52180;SDS011;38158;53.338;6.514;2023-03-23T05:59:57;17.80;;;2.78;;
52180;SDS011;38158;53.338;6.514;2023-03-23T06:02:24;16.95;;;3.10;;
52180;SDS011;38158;53.338;6.514;2023-03-23T06:04:53;15.18;;;3.17;;
52180;SDS011;38158;53.338;6.514;2023-03-23T06:07:23;15.75;;;3.30;;
52180;SDS011;38158;53.338;6.514;2023-03-23T06:09:49;12.10;;;2.33;;
52180;SDS011;38158;53.338;6.514;2023-03-23T06:12:16;20.00;;;3.50;;
52180;SDS011;38158;53.338;6.514;2023-03-23T06:14:45;23.38;;;3.22;;
52180;SDS011;38158;53.338;6.514;2023-03-23T06:17:11;15.05;;;2.53;;
52180;SDS011;38158;53.338;6.514;2023-03-23T06:19:37;21.65;;;3.45;;
52180;SDS011;38158;53.338;6.514;2023-03-23T06:22:03;26.02;;;4.18;;
52180;SDS011;38158;53.338;6.514;2023-03-23T06:24:30;18.95;;;2.95;;
52180;SDS011;38158;53.338;6.514;2023-03-23T06:26:57;15.70;;;2.78;;
52180;SDS011;38158;53.338;6.514;2023-03-23T06:29:24;13.80;;;2.42;;
52180;SDS011;38158;53.338;6.514;2023-03-23T06:31:51;13.95;;;2.20;;
52180;SDS011;38158;53.338;6.514;2023-03-23T06:34:21;10.15;;;1.90;;
52180;SDS011;38158;53.338;6.514;2023-03-23T06:36:47;14.60;;;2.15;;
52180;SDS011;38158;53.338;6.514;2023-03-23T06:39:12;23.05;;;2.78;;
52180;SDS011;38158;53.338;6.514;2023-03-23T06:41:38;13.73;;;2.17;;
52180;SDS011;38158;53.338;6.514;2023-03-23T06:44:05;19.63;;;3.05;;
52180;SDS011;38158;53.338;6.514;2023-03-23T06:46:31;15.55;;;2.25;;
52180;SDS011;38158;53.338;6.514;2023-03-23T06:49:00;16.17;;;2.90;;
52180;SDS011;38158;53.338;6.514;2023-03-23T06:51:28;18.60;;;2.42;;
52180;SDS011;38158;53.338;6.514;2023-03-23T06:53:56;11.25;;;1.90;;
52180;SDS011;38158;53.338;6.514;2023-03-23T06:56:25;9.88;;;1.60;;
52180;SDS011;38158;53.338;6.514;2023-03-23T06:58:54;8.45;;;2.03;;
52180;SDS011;38158;53.338;6.514;2023-03-23T07:01:27;6.72;;;1.08;;
52180;SDS011;38158;53.338;6.514;2023-03-23T07:04:01;7.80;;;1.10;;
52180;SDS011;38158;53.338;6.514;2023-03-23T07:13:54;9.10;;;1.80;;
52180;SDS011;38158;53.338;6.514;2023-03-23T07:16:46;9.20;;;1.80;;
52180;SDS011;38158;53.338;6.514;2023-03-23T07:19:39;9.27;;;2.15;;
52180;SDS011;38158;53.338;6.514;2023-03-23T07:22:19;7.03;;;1.55;;
52180;SDS011;38158;53.338;6.514;2023-03-23T07:25:02;8.75;;;1.40;;
52180;SDS011;38158;53.338;6.514;2023-03-23T07:28:51;13.80;;;2.28;;
52180;SDS011;38158;53.338;6.514;2023-03-23T08:48:23;31.40;;;5.50;;
52180;SDS011;38158;53.338;6.514;2023-03-23T08:50:49;24.27;;;3.30;;
52180;SDS011;38158;53.338;6.514;2023-03-23T08:53:17;25.38;;;3.97;;
52180;SDS011;38158;53.338;6.514;2023-03-23T08:55:43;18.20;;;3.28;;
52180;SDS011;38158;53.338;6.514;2023-03-23T08:58:10;19.20;;;4.43;;
52180;SDS011;38158;53.338;6.514;2023-03-23T09:00:35;23.02;;;3.92;;
52180;SDS011;38158;53.338;6.514;2023-03-23T09:03:01;21.23;;;4.15;;
52180;SDS011;38158;53.338;6.514;2023-03-23T09:05:28;30.02;;;5.03;;
52180;SDS011;38158;53.338;6.514;2023-03-23T09:07:56;26.88;;;4.78;;
52180;SDS011;38158;53.338;6.514;2023-03-23T09:10:26;26.45;;;4.50;;
52180;SDS011;38158;53.338;6.514;2023-03-23T09:15:19;22.08;;;3.97;;
52180;SDS011;38158;53.338;6.514;2023-03-23T09:17:46;23.67;;;3.80;;
52180;SDS011;38158;53.338;6.514;2023-03-23T09:20:15;28.73;;;4.22;;
52180;SDS011;38158;53.338;6.514;2023-03-23T09:22:43;18.60;;;4.18;;
52180;SDS011;38158;53.338;6.514;2023-03-23T09:25:11;26.05;;;3.60;;
52180;SDS011;38158;53.338;6.514;2023-03-23T09:27:39;22.40;;;4.05;;
52180;SDS011;38158;53.338;6.514;2023-03-23T09:30:06;21.43;;;4.47;;
52180;SDS011;38158;53.338;6.514;2023-03-23T09:32:35;21.27;;;4.00;;
52180;SDS011;38158;53.338;6.514;2023-03-23T09:35:02;17.23;;;3.88;;
52180;SDS011;38158;53.338;6.514;2023-03-23T09:37:29;22.30;;;3.35;;
52180;SDS011;38158;53.338;6.514;2023-03-23T09:39:55;16.02;;;3.03;;
52180;SDS011;38158;53.338;6.514;2023-03-23T09:50:24;26.00;;;3.97;;
52180;SDS011;38158;53.338;6.514;2023-03-23T09:52:58;26.55;;;4.25;;
52180;SDS011;38158;53.338;6.514;2023-03-23T09:55:34;25.85;;;3.88;;
52180;SDS011;38158;53.338;6.514;2023-03-23T10:00:47;17.95;;;3.03;;
52180;SDS011;38158;53.338;6.514;2023-03-23T10:03:30;25.65;;;4.50;;
52180;SDS011;38158;53.338;6.514;2023-03-23T10:05:59;23.45;;;3.33;;
52180;SDS011;38158;53.338;6.514;2023-03-23T10:08:27;17.77;;;4.20;;
52180;SDS011;38158;53.338;6.514;2023-03-23T10:10:59;16.08;;;3.17;;
52180;SDS011;38158;53.338;6.514;2023-03-23T10:16:09;21.27;;;3.22;;
52180;SDS011;38158;53.338;6.514;2023-03-23T10:21:35;24.58;;;4.47;;
52180;SDS011;38158;53.338;6.514;2023-03-23T10:24:08;19.33;;;3.10;;
52180;SDS011;38158;53.338;6.514;2023-03-23T10:31:39;19.23;;;2.80;;
52180;SDS011;38158;53.338;6.514;2023-03-23T10:34:12;17.38;;;3.17;;
52180;SDS011;38158;53.338;6.514;2023-03-23T10:36:50;17.88;;;3.03;;
52180;SDS011;38158;53.338;6.514;2023-03-23T10:39:21;25.23;;;3.33;;
52180;SDS011;38158;53.338;6.514;2023-03-23T10:41:49;15.48;;;3.00;;
52180;SDS011;38158;53.338;6.514;2023-03-23T10:46:50;16.65;;;3.22;;
52180;SDS011;38158;53.338;6.514;2023-03-23T10:49:36;17.88;;;4.20;;
52180;SDS011;38158;53.338;6.514;2023-03-23T10:55:10;19.17;;;3.03;;
52180;SDS011;38158;53.338;6.514;2023-03-23T10:57:41;17.63;;;2.47;;
52180;SDS011;38158;53.338;6.514;2023-03-23T11:00:20;15.60;;;2.95;;
52180;SDS011;38158;53.338;6.514;2023-03-23T11:05:38;19.17;;;2.80;;
52180;SDS011;38158;53.338;6.514;2023-03-23T11:08:12;20.77;;;3.13;;
52180;SDS011;38158;53.338;6.514;2023-03-23T11:10:53;21.00;;;3.78;;
52180;SDS011;38158;53.338;6.514;2023-03-23T11:13:22;17.98;;;3.70;;
52180;SDS011;38158;53.338;6.514;2023-03-23T11:15:53;26.17;;;5.00;;
52180;SDS011;38158;53.338;6.514;2023-03-23T11:18:20;15.50;;;3.33;;
52180;SDS011;38158;53.338;6.514;2023-03-23T11:20:50;15.07;;;2.75;;
52180;SDS011;38158;53.338;6.514;2023-03-23T11:25:54;17.42;;;3.33;;
52180;SDS011;38158;53.338;6.514;2023-03-23T11:28:30;18.50;;;3.22;;
52180;SDS011;38158;53.338;6.514;2023-03-23T11:30:59;12.85;;;2.75;;
52180;SDS011;38158;53.338;6.514;2023-03-23T11:33:46;17.17;;;3.38;;
52180;SDS011;38158;53.338;6.514;2023-03-23T11:36:34;16.73;;;2.97;;
52180;SDS011;38158;53.338;6.514;2023-03-23T11:39:26;16.20;;;3.13;;
52180;SDS011;38158;53.338;6.514;2023-03-23T11:41:52;15.35;;;2.85;;
52180;SDS011;38158;53.338;6.514;2023-03-23T11:44:20;16.35;;;3.67;;
52180;SDS011;38158;53.338;6.514;2023-03-23T11:47:02;16.70;;;3.50;;
52180;SDS011;38158;53.338;6.514;2023-03-23T11:55:20;19.15;;;2.58;;
52180;SDS011;38158;53.338;6.514;2023-03-23T11:57:50;17.95;;;3.00;;
52180;SDS011;38158;53.338;6.514;2023-03-23T12:00:19;15.73;;;2.42;;
52180;SDS011;38158;53.338;6.514;2023-03-23T12:06:03;14.98;;;2.42;;
52180;SDS011;38158;53.338;6.514;2023-03-23T12:11:43;21.17;;;2.83;;
52180;SDS011;38158;53.338;6.514;2023-03-23T12:37:01;11.80;;;1.75;;
52180;SDS011;38158;53.338;6.514;2023-03-23T12:44:50;13.18;;;2.10;;
52180;SDS011;38158;53.338;6.514;2023-03-23T12:50:30;14.00;;;2.55;;
52180;SDS011;38158;53.338;6.514;2023-03-23T12:53:03;14.95;;;2.33;;
52180;SDS011;38158;53.338;6.514;2023-03-23T12:58:18;15.77;;;3.17;;
52180;SDS011;38158;53.338;6.514;2023-03-23T13:00:56;14.15;;;2.70;;
52180;SDS011;38158;53.338;6.514;2023-03-23T13:03:25;12.55;;;2.17;;
52180;SDS011;38158;53.338;6.514;2023-03-23T13:05:55;12.10;;;2.72;;
52180;SDS011;38158;53.338;6.514;2023-03-23T13:08:27;11.93;;;2.22;;
52180;SDS011;38158;53.338;6.514;2023-03-23T13:11:13;12.55;;;2.45;;
52180;SDS011;38158;53.338;6.514;2023-03-23T13:19:22;11.50;;;2.33;;
52180;SDS011;38158;53.338;6.514;2023-03-23T13:21:53;13.48;;;2.47;;
52180;SDS011;38158;53.338;6.514;2023-03-23T13:24:23;13.00;;;1.92;;
52180;SDS011;38158;53.338;6.514;2023-03-23T13:26:52;17.48;;;2.55;;
52180;SDS011;38158;53.338;6.514;2023-03-23T13:29:22;14.68;;;3.35;;
52180;SDS011;38158;53.338;6.514;2023-03-23T13:34:18;14.00;;;2.33;;
52180;SDS011;38158;53.338;6.514;2023-03-23T13:36:55;14.95;;;2.42;;
52180;SDS011;38158;53.338;6.514;2023-03-23T13:42:25;16.27;;;2.67;;
52180;SDS011;38158;53.338;6.514;2023-03-23T13:50:44;19.60;;;2.50;;
52180;SDS011;38158;53.338;6.514;2023-03-23T13:53:22;16.02;;;2.53;;
52180;SDS011;38158;53.338;6.514;2023-03-23T13:56:04;17.67;;;2.35;;
52180;SDS011;38158;53.338;6.514;2023-03-23T13:58:49;13.95;;;2.50;;
52180;SDS011;38158;53.338;6.514;2023-03-23T14:01:34;13.40;;;3.08;;
52180;SDS011;38158;53.338;6.514;2023-03-23T14:04:02;10.50;;;2.35;;
52180;SDS011;38158;53.338;6.514;2023-03-23T14:06:35;18.73;;;2.65;;
52180;SDS011;38158;53.338;6.514;2023-03-23T14:09:44;21.30;;;3.47;;
52180;SDS011;38158;53.338;6.514;2023-03-23T14:11:57;20.45;;;3.47;;
52180;SDS011;38158;53.338;6.514;2023-03-23T14:14:33;16.42;;;2.50;;
52180;SDS011;38158;53.338;6.514;2023-03-23T14:17:14;17.90;;;3.13;;
52180;SDS011;38158;53.338;6.514;2023-03-23T14:19:52;23.58;;;3.05;;
52180;SDS011;38158;53.338;6.514;2023-03-23T14:22:24;16.15;;;2.60;;
52180;SDS011;38158;53.338;6.514;2023-03-23T14:24:52;13.88;;;2.58;;
52180;SDS011;38158;53.338;6.514;2023-03-23T14:27:39;19.27;;;2.75;;
52180;SDS011;38158;53.338;6.514;2023-03-23T14:30:07;16.20;;;2.15;;
52180;SDS011;38158;53.338;6.514;2023-03-23T14:32:38;25.52;;;2.65;;
52180;SDS011;38158;53.338;6.514;2023-03-23T14:35:05;19.27;;;3.10;;
52180;SDS011;38158;53.338;6.514;2023-03-23T14:40:18;13.07;;;2.20;;
52180;SDS011;38158;53.338;6.514;2023-03-23T14:42:44;17.50;;;2.90;;
52180;SDS011;38158;53.338;6.514;2023-03-23T14:45:12;15.27;;;2.63;;
52180;SDS011;38158;53.338;6.514;2023-03-23T14:47:46;18.50;;;3.05;;
52180;SDS011;38158;53.338;6.514;2023-03-23T14:53:09;11.00;;;2.33;;
52180;SDS011;38158;53.338;6.514;2023-03-23T14:56:17;11.20;;;2.00;;
52180;SDS011;38158;53.338;6.514;2023-03-23T14:58:47;16.40;;;2.25;;
52180;SDS011;38158;53.338;6.514;2023-03-23T15:01:48;12.30;;;2.10;;
52180;SDS011;38158;53.338;6.514;2023-03-23T15:04:25;12.00;;;2.78;;
52180;SDS011;38158;53.338;6.514;2023-03-23T15:06:55;10.80;;;2.58;;
52180;SDS011;38158;53.338;6.514;2023-03-23T15:09:25;12.90;;;3.67;;
52180;SDS011;38158;53.338;6.514;2023-03-23T15:11:55;10.68;;;2.60;;
52180;SDS011;38158;53.338;6.514;2023-03-23T15:14:26;13.43;;;2.75;;
52180;SDS011;38158;53.338;6.514;2023-03-23T15:16:55;10.27;;;1.77;;
52180;SDS011;38158;53.338;6.514;2023-03-23T15:19:28;11.68;;;2.53;;
52180;SDS011;38158;53.338;6.514;2023-03-23T15:22:06;12.65;;;2.53;;
52180;SDS011;38158;53.338;6.514;2023-03-23T15:24:38;12.60;;;2.15;;
52180;SDS011;38158;53.338;6.514;2023-03-23T15:29:31;8.23;;;1.80;;
52180;SDS011;38158;53.338;6.514;2023-03-23T15:31:57;13.98;;;2.13;;
52180;SDS011;38158;53.338;6.514;2023-03-23T15:37:05;13.00;;;2.63;;
52180;SDS011;38158;53.338;6.514;2023-03-23T15:39:44;13.82;;;1.63;;
52180;SDS011;38158;53.338;6.514;2023-03-23T15:42:28;9.82;;;1.58;;
52180;SDS011;38158;53.338;6.514;2023-03-23T15:44:57;11.60;;;1.80;;
52180;SDS011;38158;53.338;6.514;2023-03-23T15:52:51;10.95;;;2.30;;
52180;SDS011;38158;53.338;6.514;2023-03-23T15:55:35;10.55;;;1.50;;
52180;SDS011;38158;53.338;6.514;2023-03-23T15:58:07;8.90;;;1.50;;
52180;SDS011;38158;53.338;6.514;2023-03-23T16:00:37;10.05;;;1.70;;
52180;SDS011;38158;53.338;6.514;2023-03-23T16:03:05;11.00;;;2.28;;
52180;SDS011;38158;53.338;6.514;2023-03-23T16:05:36;12.32;;;1.92;;
52180;SDS011;38158;53.338;6.514;2023-03-23T16:08:01;15.50;;;3.08;;
52180;SDS011;38158;53.338;6.514;2023-03-23T16:10:28;10.27;;;2.10;;
52180;SDS011;38158;53.338;6.514;2023-03-23T16:12:54;12.57;;;2.13;;
52180;SDS011;38158;53.338;6.514;2023-03-23T16:15:21;13.27;;;2.47;;
52180;SDS011;38158;53.338;6.514;2023-03-23T16:17:46;11.98;;;2.30;;
52180;SDS011;38158;53.338;6.514;2023-03-23T16:20:13;19.02;;;2.60;;
52180;SDS011;38158;53.338;6.514;2023-03-23T16:22:40;17.48;;;2.90;;
52180;SDS011;38158;53.338;6.514;2023-03-23T16:25:07;18.13;;;2.63;;
52180;SDS011;38158;53.338;6.514;2023-03-23T16:27:34;14.00;;;2.75;;
52180;SDS011;38158;53.338;6.514;2023-03-23T16:30:00;15.07;;;2.65;;
52180;SDS011;38158;53.338;6.514;2023-03-23T16:32:28;25.75;;;3.00;;
52180;SDS011;38158;53.338;6.514;2023-03-23T16:34:54;13.05;;;2.58;;
52180;SDS011;38158;53.338;6.514;2023-03-23T16:37:20;18.17;;;3.20;;
52180;SDS011;38158;53.338;6.514;2023-03-23T16:39:46;15.10;;;2.67;;
52180;SDS011;38158;53.338;6.514;2023-03-23T16:42:11;26.25;;;3.25;;
52180;SDS011;38158;53.338;6.514;2023-03-23T16:44:37;16.67;;;2.67;;
52180;SDS011;38158;53.338;6.514;2023-03-23T16:47:03;17.60;;;3.72;;
52180;SDS011;38158;53.338;6.514;2023-03-23T16:49:29;22.08;;;3.33;;
52180;SDS011;38158;53.338;6.514;2023-03-23T16:51:54;14.75;;;3.25;;
52180;SDS011;38158;53.338;6.514;2023-03-23T16:54:20;16.90;;;2.80;;
52180;SDS011;38158;53.338;6.514;2023-03-23T16:56:46;13.75;;;3.50;;
52180;SDS011;38158;53.338;6.514;2023-03-23T16:59:13;17.75;;;4.03;;
52180;SDS011;38158;53.338;6.514;2023-03-23T17:01:39;13.60;;;2.92;;
52180;SDS011;38158;53.338;6.514;2023-03-23T17:04:05;17.17;;;3.57;;
52180;SDS011;38158;53.338;6.514;2023-03-23T17:06:31;10.23;;;2.28;;
52180;SDS011;38158;53.338;6.514;2023-03-23T17:08:57;17.27;;;2.75;;
52180;SDS011;38158;53.338;6.514;2023-03-23T17:11:22;19.05;;;4.07;;
52180;SDS011;38158;53.338;6.514;2023-03-23T17:13:48;19.65;;;3.42;;
52180;SDS011;38158;53.338;6.514;2023-03-23T17:16:14;17.27;;;2.35;;
52180;SDS011;38158;53.338;6.514;2023-03-23T17:18:40;14.73;;;3.00;;
52180;SDS011;38158;53.338;6.514;2023-03-23T17:21:05;15.93;;;3.10;;
52180;SDS011;38158;53.338;6.514;2023-03-23T17:23:31;16.92;;;3.28;;
52180;SDS011;38158;53.338;6.514;2023-03-23T17:25:57;17.25;;;2.72;;
52180;SDS011;38158;53.338;6.514;2023-03-23T17:28:23;16.27;;;3.15;;
52180;SDS011;38158;53.338;6.514;2023-03-23T17:30:50;24.10;;;3.50;;
52180;SDS011;38158;53.338;6.514;2023-03-23T17:33:17;15.93;;;3.55;;
52180;SDS011;38158;53.338;6.514;2023-03-23T17:35:44;17.30;;;3.20;;
52180;SDS011;38158;53.338;6.514;2023-03-23T17:38:10;24.73;;;3.92;;
52180;SDS011;38158;53.338;6.514;2023-03-23T17:40:36;18.45;;;3.72;;
52180;SDS011;38158;53.338;6.514;2023-03-23T17:43:02;25.92;;;4.07;;
52180;SDS011;38158;53.338;6.514;2023-03-23T17:45:28;20.20;;;3.50;;
52180;SDS011;38158;53.338;6.514;2023-03-23T17:47:54;21.35;;;4.55;;
52180;SDS011;38158;53.338;6.514;2023-03-23T17:50:20;21.85;;;4.55;;
52180;SDS011;38158;53.338;6.514;2023-03-23T17:52:46;20.02;;;4.15;;
52180;SDS011;38158;53.338;6.514;2023-03-23T17:55:13;19.17;;;3.60;;
52180;SDS011;38158;53.338;6.514;2023-03-23T17:57:40;21.02;;;4.10;;
52180;SDS011;38158;53.338;6.514;2023-03-23T18:00:06;24.10;;;4.20;;
52180;SDS011;38158;53.338;6.514;2023-03-23T18:02:33;21.70;;;4.22;;
52180;SDS011;38158;53.338;6.514;2023-03-23T18:05:02;20.88;;;4.18;;
52180;SDS011;38158;53.338;6.514;2023-03-23T18:07:28;22.27;;;4.13;;
52180;SDS011;38158;53.338;6.514;2023-03-23T18:09:59;19.25;;;3.85;;
52180;SDS011;38158;53.338;6.514;2023-03-23T18:12:25;21.65;;;3.80;;
52180;SDS011;38158;53.338;6.514;2023-03-23T18:14:54;19.92;;;3.38;;
52180;SDS011;38158;53.338;6.514;2023-03-23T18:17:21;21.90;;;3.60;;
52180;SDS011;38158;53.338;6.514;2023-03-23T18:19:46;20.35;;;3.67;;
52180;SDS011;38158;53.338;6.514;2023-03-23T18:22:12;25.10;;;3.90;;
52180;SDS011;38158;53.338;6.514;2023-03-23T18:24:38;22.33;;;3.47;;
52180;SDS011;38158;53.338;6.514;2023-03-23T18:27:04;18.23;;;3.75;;
52180;SDS011;38158;53.338;6.514;2023-03-23T18:29:29;19.38;;;3.25;;
52180;SDS011;38158;53.338;6.514;2023-03-23T18:31:55;21.52;;;3.75;;
52180;SDS011;38158;53.338;6.514;2023-03-23T18:34:21;19.45;;;3.67;;
52180;SDS011;38158;53.338;6.514;2023-03-23T18:36:46;16.88;;;3.47;;
52180;SDS011;38158;53.338;6.514;2023-03-23T18:39:12;26.08;;;3.70;;
52180;SDS011;38158;53.338;6.514;2023-03-23T18:41:38;15.73;;;3.75;;
52180;SDS011;38158;53.338;6.514;2023-03-23T18:44:04;21.23;;;4.25;;